Nearby METAR Reports

 

KOAK - Oakland, California, USA
Distance from station: SSW 6mi, 9km
Updated: Sat, 23-Feb-2019 4:53pm PST
Mostly cloudy
Mostly cloudy
 Wind from W
Wind: W 12 mph , 19 km/h
Temperature: 54°F , 12°C
Dew Point: 41°F , 5°C
Humidity: 63%
Barometer: 30.30 inHg , 1026.1 hPa
Clouds: Mostly cloudy
Visibility: 10 miles , 16 km
Cloud details: Few Clouds 2000 ft
Partly cloudy 12000 ft
Mostly cloudy 14000 ft
Mostly cloudy 20000 ft
2019/02/24 00:53 KOAK 240053Z 28010KT 10SM FEW020 SCT120 BKN140 BKN200 12/05 A3030 RMK AO2 SLP261 T01170050
KHWD - Hayward, California, USA
Distance from station: SSE 8mi, 12km
Updated: Sat, 23-Feb-2019 4:54pm PST
Mostly cloudy
Mostly cloudy
 Wind from WNW
Wind: WNW 10 mph , 17 km/h
Temperature: 54°F , 12°C
Dew Point: 39°F , 4°C
Humidity: 58%
Barometer: 30.29 inHg , 1025.7 hPa
Clouds: Mostly cloudy
Visibility: 10 miles , 16 km
Cloud details: Mostly cloudy 11000 ft
2019/02/24 00:54 KHWD 240054Z 30009KT 10SM BKN110 12/04 A3029 RMK AO2 SLP268 T01170044
KSFO - San Francisco, California, USA
Distance from station: SW 15mi, 25km
Updated: Sat, 23-Feb-2019 4:56pm PST
Mostly cloudy
Mostly cloudy
 Wind from W
Wind: W 14 mph , 22 km/h
Temperature: 54°F , 12°C
Dew Point: 39°F , 4°C
Humidity: 58%
Barometer: 30.29 inHg , 1025.7 hPa
Clouds: Mostly cloudy
Visibility: 10 miles , 16 km
Cloud details: Few Clouds 2300 ft
Mostly cloudy 11000 ft
Mostly cloudy 18000 ft
2019/02/24 00:56 KSFO 240056Z 28012KT 10SM FEW023 BKN110 BKN180 12/04 A3029 RMK AO2 SLP257 T01170039
 
KCCR - Concord, California, USA
Distance from station: NNE 17mi, 27km
Updated: Sat, 23-Feb-2019 4:53pm PST
Few Clouds
Few Clouds
 Wind from N
Wind: N 6 mph , 9 km/h
Temperature: 55°F , 13°C
Dew Point: 39°F , 4°C
Humidity: 55%
Barometer: 30.28 inHg , 1025.4 hPa
Clouds: Few Clouds
Visibility: 10 miles , 16 km
Cloud details: Few Clouds 12000 ft
2019/02/24 00:53 KCCR 240053Z 35005KT 10SM FEW120 13/04 A3028 RMK AO2 SLP239 T01330039
KSQL - San Carlos Airpo, California, USA
Distance from station: SSW 18mi, 29km
Updated: Sat, 23-Feb-2019 4:52pm PST
Mostly cloudy
Mostly cloudy
 Wind from W
Wind: W 10 mph , 17 km/h
Temperature: 54°F , 12°C
Dew Point: 41°F , 5°C
Humidity: 63%
Barometer: 30.29 inHg , 1025.7 hPa
Clouds: Mostly cloudy
Visibility: 10 miles , 16 km
Cloud details: Mostly cloudy 12000 ft
2019/02/24 00:52 KSQL 240052Z 27009KT 10SM BKN120 12/05 A3029
KLVK - Livermore, California, USA
Distance from station: ESE 20mi, 31km
Updated: Sat, 23-Feb-2019 4:53pm PST
Mostly cloudy
Mostly cloudy
 Wind from W
Wind: W 9 mph , 15 km/h
Temperature: 54°F , 12°C
Dew Point: 39°F , 4°C
Humidity: 58%
Barometer: 30.26 inHg , 1024.7 hPa
Clouds: Mostly cloudy
Visibility: 10 miles , 16 km
Cloud details: Mostly cloudy 11000 ft
2019/02/24 00:53 KLVK 240053Z 28008KT 10SM BKN110 12/04 A3026 RMK AO2 SLP250 T01220039
 
KPAO - Palo Alto, California, USA
Distance from station: S 21mi, 34km
Updated: Sat, 23-Feb-2019 4:47pm PST
Mostly cloudy
Mostly cloudy
 Wind from N
Wind: N 12 mph , 19 km/h
Barometer: 30.30 inHg , 1026.1 hPa
Clouds: Mostly cloudy
Visibility: 10 miles , 16 km
Cloud details: Few Clouds 3000 ft
Mostly cloudy 12000 ft
2019/02/24 00:47 KPAO 240047Z 35010KT 10SM FEW030 BKN120 A3030 RMK WIND ESTIMATED
KHAF - Half Moon Bay, California, USA
Distance from station: SW 25mi, 41km
Updated: Wed, 13-Feb-2019 2:15pm PST
NOT Current
Light rain, Overcast
Light rain, Overcast
 Wind from S
Wind: S 33 mph , 54 km/h, Gust: 43 mph , 69 km/h
Temperature: 55°F , 13°C
Dew Point: 54°F , 12°C
Humidity: 94%
Barometer: 29.54 inHg , 1000.3 hPa
Summary: Light rain
Clouds: Overcast
Visibility: 3/4 mile , 1.2 km
Cloud details: Overcast 700 ft
2019/02/13 22:15 KHAF 132215Z AUTO 17029G37KT 3/4SM -RA OVC007 13/12 A2954 RMK AO2
KNUQ - Moffett Nas/Mtn, California, USA
Distance from station: SSE 26mi, 42km
Updated: Sat, 23-Feb-2019 4:56pm PST
Mostly cloudy
Mostly cloudy
 Wind from N
Wind: N 13 mph , 20 km/h
Temperature: 54°F , 12°C
Dew Point: 43°F , 6°C
Humidity: 67%
Barometer: 30.30 inHg , 1026.1 hPa
Clouds: Mostly cloudy
Visibility: 10 miles , 16 km
Cloud details: Mostly cloudy 12000 ft
2019/02/24 00:56 KNUQ 240056Z 35011KT 10SM BKN120 12/06 A3030 RMK AO2 SLP261 T01170056 $
 
KAPC - Napa, California, USA
Distance from station: NNW 30mi, 49km
Updated: Sat, 23-Feb-2019 4:54pm PST
Few Clouds
Few Clouds
 Wind from SSW
Wind: SSW 8 mph , 13 km/h
Temperature: 52°F , 11°C
Dew Point: 41°F , 5°C
Humidity: 67%
Barometer: 30.29 inHg , 1025.7 hPa
Clouds: Few Clouds
Visibility: 10 miles , 16 km
Cloud details: Few Clouds 12000 ft
2019/02/24 00:54 KAPC 240054Z 20007KT 10SM FEW120 11/05 A3029 RMK AO2 SLP247 T01110050
KSJC - San Jose, California, USA
Distance from station: SSE 31mi, 50km
Updated: Sat, 23-Feb-2019 4:53pm PST
Overcast
Overcast
 Wind from NW
Wind: NW 12 mph , 19 km/h
Temperature: 54°F , 12°C
Dew Point: 43°F , 6°C
Humidity: 67%
Barometer: 30.29 inHg , 1025.7 hPa
Clouds: Overcast
Visibility: 10 miles , 16 km
Cloud details: Few Clouds 2200 ft
Mostly cloudy 11000 ft
Overcast 25000 ft
2019/02/24 00:53 KSJC 240053Z 32010KT 10SM FEW022 BKN110 OVC250 12/06 A3029 RMK AO2 SLP255 T01170061 $
KDVO - Novato/Gnoss Fld, California, USA
Distance from station: NW 34mi, 54km
Updated: Sat, 23-Feb-2019 5:35pm PST
Few Clouds
Few Clouds
 Wind from calm
Wind: Calm
Temperature: 54°F , 12°C
Dew Point: 39°F , 4°C
Humidity: 58%
Barometer: 30.29 inHg , 1025.7 hPa
Clouds: Few Clouds
Visibility: 10 miles , 16 km
Cloud details: Few Clouds 9000 ft
Few Clouds 11000 ft
2019/02/24 01:35 KDVO 240135Z AUTO 00000KT 10SM FEW090 FEW110 12/04 A3029 RMK AO2
 
KRHV - San Jose/Reid, California, USA
Distance from station: SSE 37mi, 59km
Updated: Sat, 23-Feb-2019 4:47pm PST
Mostly cloudy
Mostly cloudy
 Wind from NW
Wind: NW 14 mph , 22 km/h
Temperature: 55°F , 13°C
Dew Point: 41°F , 5°C
Humidity: 59%
Barometer: 30.26 inHg , 1024.7 hPa
Clouds: Mostly cloudy
Visibility: 10 miles , 16 km
Cloud details: Mostly cloudy 12000 ft
2019/02/24 00:47 KRHV 240047Z 32012KT 10SM BKN120 13/05 A3026
KSUU - Travis Afb/Fairf, California, USA
Distance from station: NNE 37mi, 59km
Updated: Sat, 23-Feb-2019 4:58pm PST
Few Clouds
Few Clouds
 Wind from S
Wind: S 3 mph , 6 km/h
Temperature: 55°F , 13°C
Dew Point: 39°F , 4°C
Humidity: 55%
Barometer: 30.28 inHg , 1025.4 hPa
Clouds: Few Clouds
Visibility: 10 miles , 16 km
Cloud details: Few Clouds 12000 ft
2019/02/24 00:58 KSUU 240058Z AUTO 18003KT 10SM FEW120 13/04 A3028 RMK AO2 SLP261 T01260041 $
KO69 - Petaluma, California, USA
Distance from station: NW 41mi, 66km
Updated: Sat, 23-Feb-2019 5:35pm PST
Clear
Clear
 Wind from WNW
Wind: WNW 5 mph , 7 km/h
Temperature: 50°F , 10°C
Wind Chill: 48°F , 9°C
Dew Point: 41°F , 5°C
Humidity: 71%
Barometer: 30.29 inHg , 1025.7 hPa
Clouds: Clear
Visibility: 10 miles , 16 km
2019/02/24 01:35 KO69 240135Z AUTO 29004KT 10SM CLR 10/05 A3029 RMK A01
 
KVCB - Vacaville, California, USA
Distance from station: NNE 44mi, 71km
Updated: Sat, 23-Feb-2019 4:53pm PST
Partly cloudy
Partly cloudy
 Wind from SSW
Wind: SSW 6 mph , 9 km/h
Temperature: 55°F , 13°C
Dew Point: 39°F , 4°C
Humidity: 55%
Barometer: 30.29 inHg , 1025.7 hPa
Clouds: Partly cloudy
Visibility: 10 miles , 16 km
Cloud details: Partly cloudy 12000 ft
2019/02/24 00:53 KVCB 240053Z AUTO 21005KT 10SM SCT120 13/04 A3029 RMK AO2 SLP255 T01330044